sensor_id;sensor_type;location;lat;lon;timestamp;pressure;altitude;pressure_sealevel;temperature;humidity
5691;BME280;2870;42.680;23.364;2024-02-26T00:00:53;94691.06;;;9.87;100.00
5691;BME280;2870;42.680;23.364;2024-02-26T00:03:20;94686.03;;;9.86;100.00
5691;BME280;2870;42.680;23.364;2024-02-26T00:05:47;94689.97;;;9.82;100.00
5691;BME280;2870;42.680;23.364;2024-02-26T00:08:13;94679.19;;;9.71;100.00
5691;BME280;2870;42.680;23.364;2024-02-26T00:10:40;94683.50;;;9.65;100.00
5691;BME280;2870;42.680;23.364;2024-02-26T00:13:08;94674.69;;;9.76;100.00
5691;BME280;2870;42.680;23.364;2024-02-26T00:15:36;94677.81;;;9.80;100.00
5691;BME280;2870;42.680;23.364;2024-02-26T00:18:02;94675.22;;;9.82;100.00
5691;BME280;2870;42.680;23.364;2024-02-26T00:20:29;94682.16;;;9.73;100.00
5691;BME280;2870;42.680;23.364;2024-02-26T00:22:56;94678.06;;;9.67;100.00
5691;BME280;2870;42.680;23.364;2024-02-26T00:25:22;94670.94;;;9.73;100.00
5691;BME280;2870;42.680;23.364;2024-02-26T00:27:49;94666.81;;;9.82;100.00
5691;BME280;2870;42.680;23.364;2024-02-26T00:30:16;94666.81;;;9.82;100.00
5691;BME280;2870;42.680;23.364;2024-02-26T00:32:44;94675.03;;;9.80;100.00
5691;BME280;2870;42.680;23.364;2024-02-26T00:35:11;94669.41;;;9.80;100.00
5691;BME280;2870;42.680;23.364;2024-02-26T00:37:37;94667.56;;;9.75;100.00
5691;BME280;2870;42.680;23.364;2024-02-26T00:40:05;94655.63;;;9.82;100.00
5691;BME280;2870;42.680;23.364;2024-02-26T00:42:34;94652.63;;;9.80;100.00
5691;BME280;2870;42.680;23.364;2024-02-26T00:45:00;94655.50;;;9.65;100.00
5691;BME280;2870;42.680;23.364;2024-02-26T00:47:28;94654.75;;;9.56;100.00
5691;BME280;2870;42.680;23.364;2024-02-26T00:49:56;94648.16;;;9.77;100.00
5691;BME280;2870;42.680;23.364;2024-02-26T00:52:23;94643.25;;;9.85;100.00
5691;BME280;2870;42.680;23.364;2024-02-26T00:54:49;94637.66;;;9.85;100.00
5691;BME280;2870;42.680;23.364;2024-02-26T00:57:16;94634.69;;;9.75;100.00
5691;BME280;2870;42.680;23.364;2024-02-26T00:59:43;94637.91;;;9.72;100.00
5691;BME280;2870;42.680;23.364;2024-02-26T01:02:09;94625.88;;;9.87;100.00
5691;BME280;2870;42.680;23.364;2024-02-26T01:04:36;94629.97;;;9.93;100.00
5691;BME280;2870;42.680;23.364;2024-02-26T01:07:04;94633.38;;;9.84;100.00
5691;BME280;2870;42.680;23.364;2024-02-26T01:09:31;94630.19;;;9.88;100.00
5691;BME280;2870;42.680;23.364;2024-02-26T01:11:57;94632.59;;;9.91;100.00
5691;BME280;2870;42.680;23.364;2024-02-26T01:14:24;94632.47;;;9.74;100.00
5691;BME280;2870;42.680;23.364;2024-02-26T01:16:51;94621.25;;;9.81;100.00
5691;BME280;2870;42.680;23.364;2024-02-26T01:19:17;94632.06;;;9.85;100.00
5691;BME280;2870;42.680;23.364;2024-02-26T01:21:44;94628.28;;;9.90;100.00
5691;BME280;2870;42.680;23.364;2024-02-26T01:24:12;94625.66;;;9.92;100.00
5691;BME280;2870;42.680;23.364;2024-02-26T01:26:39;94641.41;;;9.88;100.00
5691;BME280;2870;42.680;23.364;2024-02-26T01:29:06;94626.38;;;10.00;100.00
5691;BME280;2870;42.680;23.364;2024-02-26T01:31:32;94619.09;;;9.97;100.00
5691;BME280;2870;42.680;23.364;2024-02-26T01:33:59;94616.13;;;9.95;100.00
5691;BME280;2870;42.680;23.364;2024-02-26T01:36:26;94627.94;;;9.86;100.00
5691;BME280;2870;42.680;23.364;2024-02-26T01:38:52;94620.50;;;9.81;100.00
5691;BME280;2870;42.680;23.364;2024-02-26T01:41:20;94626.66;;;9.87;100.00
5691;BME280;2870;42.680;23.364;2024-02-26T01:43:47;94624.91;;;9.92;100.00
5691;BME280;2870;42.680;23.364;2024-02-26T01:46:14;94619.72;;;9.88;100.00
5691;BME280;2870;42.680;23.364;2024-02-26T01:48:44;94619.09;;;9.97;100.00
5691;BME280;2870;42.680;23.364;2024-02-26T01:51:14;94613.34;;;9.95;100.00
5691;BME280;2870;42.680;23.364;2024-02-26T01:53:43;94617.97;;;10.00;100.00
5691;BME280;2870;42.680;23.364;2024-02-26T01:56:09;94611.50;;;9.90;100.00
5691;BME280;2870;42.680;23.364;2024-02-26T01:58:37;94614.28;;;9.90;100.00
5691;BME280;2870;42.680;23.364;2024-02-26T02:01:05;94612.81;;;9.89;100.00
5691;BME280;2870;42.680;23.364;2024-02-26T02:03:31;94609.97;;;9.97;100.00
5691;BME280;2870;42.680;23.364;2024-02-26T02:05:58;94607.91;;;9.97;100.00
5691;BME280;2870;42.680;23.364;2024-02-26T02:08:25;94611.44;;;9.98;100.00
5691;BME280;2870;42.680;23.364;2024-02-26T02:10:53;94583.94;;;9.71;100.00
5691;BME280;2870;42.680;23.364;2024-02-26T02:13:20;94612.84;;;9.81;100.00
5691;BME280;2870;42.680;23.364;2024-02-26T02:15:48;94602.91;;;9.88;100.00
5691;BME280;2870;42.680;23.364;2024-02-26T02:18:15;94598.97;;;9.91;100.00
5691;BME280;2870;42.680;23.364;2024-02-26T02:20:43;94597.25;;;9.96;100.00
5691;BME280;2870;42.680;23.364;2024-02-26T02:23:10;94607.00;;;9.95;100.00
5691;BME280;2870;42.680;23.364;2024-02-26T02:25:36;94611.09;;;9.94;100.00
5691;BME280;2870;42.680;23.364;2024-02-26T02:28:04;94600.72;;;9.79;100.00
5691;BME280;2870;42.680;23.364;2024-02-26T02:30:31;94604.66;;;9.76;100.00
5691;BME280;2870;42.680;23.364;2024-02-26T02:32:58;94609.72;;;9.70;100.00
5691;BME280;2870;42.680;23.364;2024-02-26T02:35:25;94605.03;;;9.72;100.00
5691;BME280;2870;42.680;23.364;2024-02-26T02:37:55;94571.66;;;9.67;100.00
5691;BME280;2870;42.680;23.364;2024-02-26T02:40:22;94602.13;;;9.95;100.00
5691;BME280;2870;42.680;23.364;2024-02-26T02:42:49;94609.06;;;9.94;100.00
5691;BME280;2870;42.680;23.364;2024-02-26T02:45:15;94611.50;;;9.90;100.00
5691;BME280;2870;42.680;23.364;2024-02-26T02:47:42;94611.66;;;9.92;100.00
5691;BME280;2870;42.680;23.364;2024-02-26T02:50:09;94600.06;;;9.96;100.00
5691;BME280;2870;42.680;23.364;2024-02-26T02:52:36;94614.03;;;10.03;100.00
5691;BME280;2870;42.680;23.364;2024-02-26T02:55:04;94617.03;;;10.05;100.00
5691;BME280;2870;42.680;23.364;2024-02-26T02:57:31;94612.16;;;10.06;100.00
5691;BME280;2870;42.680;23.364;2024-02-26T02:59:58;94622.63;;;10.05;100.00
5691;BME280;2870;42.680;23.364;2024-02-26T03:05:27;94617.44;;;9.94;100.00
5691;BME280;2870;42.680;23.364;2024-02-26T03:07:54;94615.13;;;10.08;100.00
5691;BME280;2870;42.680;23.364;2024-02-26T03:10:22;94622.94;;;10.17;100.00
5691;BME280;2870;42.680;23.364;2024-02-26T03:12:49;94631.56;;;10.12;100.00
5691;BME280;2870;42.680;23.364;2024-02-26T03:15:16;94637.91;;;10.12;100.00
5691;BME280;2870;42.680;23.364;2024-02-26T03:17:43;94627.44;;;10.13;100.00
5691;BME280;2870;42.680;23.364;2024-02-26T03:20:10;94629.66;;;10.14;100.00
5691;BME280;2870;42.680;23.364;2024-02-26T03:22:38;94621.13;;;10.04;100.00
5691;BME280;2870;42.680;23.364;2024-02-26T03:25:06;94614.44;;;10.00;100.00
5691;BME280;2870;42.680;23.364;2024-02-26T03:27:34;94608.47;;;9.96;100.00
5691;BME280;2870;42.680;23.364;2024-02-26T03:30:01;94604.94;;;9.95;100.00
5691;BME280;2870;42.680;23.364;2024-02-26T03:32:29;94602.13;;;9.95;100.00
5691;BME280;2870;42.680;23.364;2024-02-26T03:34:55;94604.75;;;9.93;100.00
5691;BME280;2870;42.680;23.364;2024-02-26T03:37:22;94607.38;;;9.91;100.00
5691;BME280;2870;42.680;23.364;2024-02-26T03:39:49;94601.44;;;9.87;100.00
5691;BME280;2870;42.680;23.364;2024-02-26T03:42:16;94600.88;;;9.81;100.00
5691;BME280;2870;42.680;23.364;2024-02-26T03:44:44;94602.56;;;9.84;100.00
5691;BME280;2870;42.680;23.364;2024-02-26T03:47:11;94598.13;;;9.73;100.00
5691;BME280;2870;42.680;23.364;2024-02-26T03:49:38;94604.50;;;9.66;100.00
5691;BME280;2870;42.680;23.364;2024-02-26T03:52:05;94600.00;;;9.71;100.00
5691;BME280;2870;42.680;23.364;2024-02-26T03:54:31;94584.75;;;9.97;100.00
5691;BME280;2870;42.680;23.364;2024-02-26T03:56:58;94586.44;;;9.92;100.00
5691;BME280;2870;42.680;23.364;2024-02-26T03:59:25;94596.38;;;9.86;100.00
5691;BME280;2870;42.680;23.364;2024-02-26T04:01:53;94599.59;;;9.74;100.00
5691;BME280;2870;42.680;23.364;2024-02-26T04:04:20;94599.06;;;9.68;100.00
5691;BME280;2870;42.680;23.364;2024-02-26T04:06:47;94591.94;;;9.75;100.00
5691;BME280;2870;42.680;23.364;2024-02-26T04:09:14;94574.97;;;9.73;100.00
5691;BME280;2870;42.680;23.364;2024-02-26T04:11:41;94586.25;;;9.57;100.00
5691;BME280;2870;42.680;23.364;2024-02-26T04:14:08;94588.34;;;9.49;100.00
5691;BME280;2870;42.680;23.364;2024-02-26T04:16:37;94583.91;;;9.39;100.00
5691;BME280;2870;42.680;23.364;2024-02-26T04:19:05;94580.72;;;9.35;100.00
5691;BME280;2870;42.680;23.364;2024-02-26T04:21:32;94573.19;;;9.60;100.00
5691;BME280;2870;42.680;23.364;2024-02-26T04:23:58;94573.06;;;9.83;100.00
5691;BME280;2870;42.680;23.364;2024-02-26T04:26:27;94578.09;;;9.85;100.00
5691;BME280;2870;42.680;23.364;2024-02-26T04:28:54;94564.56;;;9.66;100.00
5691;BME280;2870;42.680;23.364;2024-02-26T04:31:20;94576.97;;;9.88;100.00
5691;BME280;2870;42.680;23.364;2024-02-26T04:33:47;94570.03;;;9.89;100.00
5691;BME280;2870;42.680;23.364;2024-02-26T04:36:15;94579.03;;;9.87;100.00
5691;BME280;2870;42.680;23.364;2024-02-26T04:38:42;94583.34;;;9.80;100.00
5691;BME280;2870;42.680;23.364;2024-02-26T04:41:09;94582.03;;;9.81;100.00
5691;BME280;2870;42.680;23.364;2024-02-26T04:43:36;94581.38;;;9.66;100.00
5691;BME280;2870;42.680;23.364;2024-02-26T04:46:06;94584.25;;;9.83;100.00
5691;BME280;2870;42.680;23.364;2024-02-26T04:48:33;94582.28;;;9.68;100.00
5691;BME280;2870;42.680;23.364;2024-02-26T04:51:00;94582.50;;;9.63;100.00
5691;BME280;2870;42.680;23.364;2024-02-26T04:53:28;94590.88;;;9.70;100.00
5691;BME280;2870;42.680;23.364;2024-02-26T04:55:55;94593.56;;;9.45;100.00
5691;BME280;2870;42.680;23.364;2024-02-26T04:58:22;94579.00;;;9.54;100.00
5691;BME280;2870;42.680;23.364;2024-02-26T05:00:48;94587.03;;;9.50;100.00
5691;BME280;2870;42.680;23.364;2024-02-26T05:03:15;94594.09;;;9.59;100.00
5691;BME280;2870;42.680;23.364;2024-02-26T05:05:42;94596.75;;;9.49;100.00
5691;BME280;2870;42.680;23.364;2024-02-26T05:08:09;94604.56;;;9.51;100.00
5691;BME280;2870;42.680;23.364;2024-02-26T05:10:38;94600.91;;;9.33;100.00
5691;BME280;2870;42.680;23.364;2024-02-26T05:13:06;94606.16;;;9.21;100.00
5691;BME280;2870;42.680;23.364;2024-02-26T05:15:33;94612.53;;;9.14;100.00
5691;BME280;2870;42.680;23.364;2024-02-26T05:18:00;94623.31;;;9.18;100.00
5691;BME280;2870;42.680;23.364;2024-02-26T05:20:26;94618.84;;;9.15;100.00
5691;BME280;2870;42.680;23.364;2024-02-26T05:22:53;94624.44;;;9.15;100.00
5691;BME280;2870;42.680;23.364;2024-02-26T05:25:20;94631.75;;;9.02;100.00
5691;BME280;2870;42.680;23.364;2024-02-26T05:27:48;94632.66;;;9.05;100.00
5691;BME280;2870;42.680;23.364;2024-02-26T05:30:15;94633.03;;;9.01;100.00
5691;BME280;2870;42.680;23.364;2024-02-26T05:32:41;94635.44;;;9.13;100.00
5691;BME280;2870;42.680;23.364;2024-02-26T05:35:08;94633.03;;;9.17;100.00
5691;BME280;2870;42.680;23.364;2024-02-26T05:37:35;94633.81;;;9.02;100.00
5691;BME280;2870;42.680;23.364;2024-02-26T05:40:02;94655.59;;;9.11;100.00
5691;BME280;2870;42.680;23.364;2024-02-26T05:42:30;94642.53;;;9.21;100.00
5691;BME280;2870;42.680;23.364;2024-02-26T05:44:58;94640.09;;;9.25;100.00
5691;BME280;2870;42.680;23.364;2024-02-26T05:47:24;94645.69;;;9.33;100.00
5691;BME280;2870;42.680;23.364;2024-02-26T05:49:51;94646.44;;;9.26;100.00
5691;BME280;2870;42.680;23.364;2024-02-26T05:52:18;94581.41;;;8.87;100.00
5691;BME280;2870;42.680;23.364;2024-02-26T05:54:45;94650.69;;;9.42;100.00
5691;BME280;2870;42.680;23.364;2024-02-26T05:57:11;94644.69;;;9.53;100.00
5691;BME280;2870;42.680;23.364;2024-02-26T05:59:38;94611.31;;;9.40;100.00
5691;BME280;2870;42.680;23.364;2024-02-26T06:02:06;94656.91;;;9.81;100.00
5691;BME280;2870;42.680;23.364;2024-02-26T06:04:33;94650.38;;;9.78;100.00
5691;BME280;2870;42.680;23.364;2024-02-26T06:06:59;94661.75;;;9.88;100.00
5691;BME280;2870;42.680;23.364;2024-02-26T06:09:26;94668.47;;;9.85;100.00
5691;BME280;2870;42.680;23.364;2024-02-26T06:11:53;94672.38;;;9.90;100.00
5691;BME280;2870;42.680;23.364;2024-02-26T06:14:20;94662.13;;;9.85;100.00
5691;BME280;2870;42.680;23.364;2024-02-26T06:16:46;94669.94;;;9.94;100.00
5691;BME280;2870;42.680;23.364;2024-02-26T06:19:15;94673.66;;;9.96;100.00
5691;BME280;2870;42.680;23.364;2024-02-26T06:21:41;94665.63;;;10.00;100.00
5691;BME280;2870;42.680;23.364;2024-02-26T06:24:08;94668.31;;;9.75;100.00
5691;BME280;2870;42.680;23.364;2024-02-26T06:26:35;94672.22;;;9.80;100.00
5691;BME280;2870;42.680;23.364;2024-02-26T06:29:01;94668.50;;;10.18;100.00
5691;BME280;2870;42.680;23.364;2024-02-26T06:31:28;94664.03;;;10.15;100.00
5691;BME280;2870;42.680;23.364;2024-02-26T06:33:55;94666.25;;;10.24;100.00
5691;BME280;2870;42.680;23.364;2024-02-26T06:36:23;94667.88;;;9.94;100.00
5691;BME280;2870;42.680;23.364;2024-02-26T06:38:51;94672.28;;;9.57;100.00
5691;BME280;2870;42.680;23.364;2024-02-26T06:41:19;94675.03;;;9.80;100.00
5691;BME280;2870;42.680;23.364;2024-02-26T06:43:46;94671.81;;;9.91;100.00
5691;BME280;2870;42.680;23.364;2024-02-26T06:46:12;94669.72;;;9.99;100.00
5691;BME280;2870;42.680;23.364;2024-02-26T06:48:39;94664.03;;;10.15;100.00
5691;BME280;2870;42.680;23.364;2024-02-26T06:51:06;94669.06;;;10.24;100.00
5691;BME280;2870;42.680;23.364;2024-02-26T06:53:34;94664.56;;;10.28;100.00
5691;BME280;2870;42.680;23.364;2024-02-26T06:56:01;94671.06;;;10.39;100.00
5691;BME280;2870;42.680;23.364;2024-02-26T06:58:28;94666.00;;;10.37;100.00
5691;BME280;2870;42.680;23.364;2024-02-26T07:00:54;94669.97;;;10.26;100.00
5691;BME280;2870;42.680;23.364;2024-02-26T07:03:21;94672.41;;;10.30;100.00
5691;BME280;2870;42.680;23.364;2024-02-26T07:05:49;94673.44;;;10.42;100.00
5691;BME280;2870;42.680;23.364;2024-02-26T07:08:16;94633.22;;;10.15;100.00
5691;BME280;2870;42.680;23.364;2024-02-26T07:10:44;94670.69;;;10.34;100.00
5691;BME280;2870;42.680;23.364;2024-02-26T07:13:11;94675.56;;;10.34;100.00
5691;BME280;2870;42.680;23.364;2024-02-26T07:15:38;94683.63;;;10.22;100.00
5691;BME280;2870;42.680;23.364;2024-02-26T07:18:05;94685.69;;;10.22;100.00
5691;BME280;2870;42.680;23.364;2024-02-26T07:20:31;94688.25;;;10.35;100.00
5691;BME280;2870;42.680;23.364;2024-02-26T07:22:58;94683.91;;;10.42;100.00
5691;BME280;2870;42.680;23.364;2024-02-26T07:25:25;94685.69;;;10.22;99.80
5691;BME280;2870;42.680;23.364;2024-02-26T07:27:53;94687.47;;;10.42;100.00
5691;BME280;2870;42.680;23.364;2024-02-26T07:30:20;94692.38;;;10.67;99.87
5691;BME280;2870;42.680;23.364;2024-02-26T07:32:46;94680.47;;;10.83;99.10
5691;BME280;2870;42.680;23.364;2024-02-26T07:35:13;94672.50;;;10.97;97.89
5691;BME280;2870;42.680;23.364;2024-02-26T07:37:40;94686.72;;;11.17;97.21
5691;BME280;2870;42.680;23.364;2024-02-26T07:40:08;94693.31;;;11.11;96.53
5691;BME280;2870;42.680;23.364;2024-02-26T07:42:35;94687.47;;;11.17;96.10
5691;BME280;2870;42.680;23.364;2024-02-26T07:45:04;94699.06;;;11.21;95.83
5691;BME280;2870;42.680;23.364;2024-02-26T07:47:31;94687.94;;;11.31;95.72
5691;BME280;2870;42.680;23.364;2024-02-26T07:50:00;94692.72;;;11.38;95.32
5691;BME280;2870;42.680;23.364;2024-02-26T07:52:26;94692.63;;;11.46;95.00
5691;BME280;2870;42.680;23.364;2024-02-26T07:54:54;94700.09;;;11.51;96.05
5691;BME280;2870;42.680;23.364;2024-02-26T07:57:21;94690.75;;;11.48;95.93
5691;BME280;2870;42.680;23.364;2024-02-26T07:59:47;94683.19;;;11.58;95.72
5691;BME280;2870;42.680;23.364;2024-02-26T08:02:16;94679.78;;;11.60;94.44
5691;BME280;2870;42.680;23.364;2024-02-26T08:04:43;94669.63;;;11.64;93.92
5691;BME280;2870;42.680;23.364;2024-02-26T08:07:09;94680.63;;;11.70;94.12
5691;BME280;2870;42.680;23.364;2024-02-26T08:09:36;94678.94;;;11.67;93.89
5691;BME280;2870;42.680;23.364;2024-02-26T08:12:03;94673.56;;;11.44;94.65
5691;BME280;2870;42.680;23.364;2024-02-26T08:14:30;94678.38;;;11.68;94.54
5691;BME280;2870;42.680;23.364;2024-02-26T08:16:57;94677.72;;;11.78;95.00
5691;BME280;2870;42.680;23.364;2024-02-26T08:19:26;94682.09;;;12.06;93.26
5691;BME280;2870;42.680;23.364;2024-02-26T08:21:52;94678.78;;;12.17;92.36
5691;BME280;2870;42.680;23.364;2024-02-26T08:24:20;94679.31;;;12.33;91.98
5691;BME280;2870;42.680;23.364;2024-02-26T08:26:46;94622.78;;;11.84;90.60
5691;BME280;2870;42.680;23.364;2024-02-26T08:29:13;94679.72;;;11.85;91.89
5691;BME280;2870;42.680;23.364;2024-02-26T08:31:40;94682.19;;;12.15;92.07
5691;BME280;2870;42.680;23.364;2024-02-26T08:34:07;94681.66;;;12.27;91.03
5691;BME280;2870;42.680;23.364;2024-02-26T08:36:35;94669.88;;;12.65;90.51
5691;BME280;2870;42.680;23.364;2024-02-26T08:39:01;94673.38;;;12.83;88.64
5691;BME280;2870;42.680;23.364;2024-02-26T08:41:28;94677.41;;;12.89;88.69
5691;BME280;2870;42.680;23.364;2024-02-26T08:43:55;94673.94;;;13.18;87.37
5691;BME280;2870;42.680;23.364;2024-02-26T08:46:23;94673.41;;;13.29;87.11
5691;BME280;2870;42.680;23.364;2024-02-26T08:48:50;94668.38;;;13.37;86.02
5691;BME280;2870;42.680;23.364;2024-02-26T08:51:16;94672.53;;;13.36;84.22
5691;BME280;2870;42.680;23.364;2024-02-26T08:53:45;94673.44;;;13.48;84.64
5691;BME280;2870;42.680;23.364;2024-02-26T08:56:11;94673.00;;;13.71;84.29
5691;BME280;2870;42.680;23.364;2024-02-26T08:58:42;94666.78;;;13.83;83.75
5691;BME280;2870;42.680;23.364;2024-02-26T09:01:08;94673.63;;;14.09;81.96
5691;BME280;2870;42.680;23.364;2024-02-26T09:03:35;94672.84;;;14.27;81.68
5691;BME280;2870;42.680;23.364;2024-02-26T09:06:02;94672.66;;;14.45;81.62
5691;BME280;2870;42.680;23.364;2024-02-26T09:08:28;94664.97;;;14.36;79.27
5691;BME280;2870;42.680;23.364;2024-02-26T09:10:56;94660.72;;;13.96;77.87
5691;BME280;2870;42.680;23.364;2024-02-26T09:13:23;94658.78;;;14.08;77.91
5691;BME280;2870;42.680;23.364;2024-02-26T09:15:50;94665.63;;;13.86;78.36
5691;BME280;2870;42.680;23.364;2024-02-26T09:18:17;94670.81;;;14.18;77.71
5691;BME280;2870;42.680;23.364;2024-02-26T09:20:43;94662.00;;;14.43;76.40
5691;BME280;2870;42.680;23.364;2024-02-26T09:23:10;94658.13;;;14.39;76.32
5691;BME280;2870;42.680;23.364;2024-02-26T09:25:37;94658.44;;;14.43;75.72
5691;BME280;2870;42.680;23.364;2024-02-26T09:28:06;94595.13;;;13.86;75.86
5691;BME280;2870;42.680;23.364;2024-02-26T09:30:32;94656.63;;;14.57;74.74
5691;BME280;2870;42.680;23.364;2024-02-26T09:32:59;94648.97;;;14.79;73.54
5691;BME280;2870;42.680;23.364;2024-02-26T09:35:26;94651.31;;;14.32;75.42
5691;BME280;2870;42.680;23.364;2024-02-26T09:37:53;94648.81;;;14.17;75.64
5691;BME280;2870;42.680;23.364;2024-02-26T09:40:19;94655.75;;;14.54;74.07
5691;BME280;2870;42.680;23.364;2024-02-26T09:42:47;94640.16;;;14.34;74.21
5691;BME280;2870;42.680;23.364;2024-02-26T09:45:19;94648.38;;;14.30;75.44
5691;BME280;2870;42.680;23.364;2024-02-26T09:47:48;94653.13;;;14.88;73.10
5691;BME280;2870;42.680;23.364;2024-02-26T09:50:17;94646.22;;;14.69;72.09
5691;BME280;2870;42.680;23.364;2024-02-26T09:52:48;94653.50;;;14.63;71.80
5691;BME280;2870;42.680;23.364;2024-02-26T09:55:15;94645.28;;;14.76;71.47
5691;BME280;2870;42.680;23.364;2024-02-26T09:57:45;94640.94;;;15.16;70.30
5691;BME280;2870;42.680;23.364;2024-02-26T10:00:15;94637.47;;;14.96;69.32
5691;BME280;2870;42.680;23.364;2024-02-26T10:02:45;94647.31;;;14.85;69.52
5691;BME280;2870;42.680;23.364;2024-02-26T10:05:14;94640.47;;;14.89;69.86
5691;BME280;2870;42.680;23.364;2024-02-26T10:07:44;94637.44;;;15.06;69.60
5691;BME280;2870;42.680;23.364;2024-02-26T10:10:11;94640.91;;;15.47;68.37
5691;BME280;2870;42.680;23.364;2024-02-26T10:12:37;94635.44;;;15.18;68.07
5691;BME280;2870;42.680;23.364;2024-02-26T10:15:05;94632.84;;;15.32;66.87
5691;BME280;2870;42.680;23.364;2024-02-26T10:17:32;94634.66;;;15.27;66.93
5691;BME280;2870;42.680;23.364;2024-02-26T10:20:12;94634.22;;;14.90;68.05
5691;BME280;2870;42.680;23.364;2024-02-26T10:22:40;94625.56;;;14.57;69.59
5691;BME280;2870;42.680;23.364;2024-02-26T10:25:08;94624.72;;;14.85;69.19
5691;BME280;2870;42.680;23.364;2024-02-26T10:27:34;94624.00;;;14.85;68.04
5691;BME280;2870;42.680;23.364;2024-02-26T10:30:03;94620.88;;;15.12;67.70
5691;BME280;2870;42.680;23.364;2024-02-26T10:32:30;94628.59;;;15.21;66.86
5691;BME280;2870;42.680;23.364;2024-02-26T10:34:57;94615.28;;;15.33;66.17
5691;BME280;2870;42.680;23.364;2024-02-26T10:37:25;94602.22;;;15.50;65.85
5691;BME280;2870;42.680;23.364;2024-02-26T10:39:52;94610.22;;;15.53;65.88
5691;BME280;2870;42.680;23.364;2024-02-26T10:42:18;94597.44;;;15.52;65.60
5691;BME280;2870;42.680;23.364;2024-02-26T10:44:45;94600.75;;;15.70;65.12
5691;BME280;2870;42.680;23.364;2024-02-26T10:47:14;94609.91;;;15.37;65.25
5691;BME280;2870;42.680;23.364;2024-02-26T10:49:46;94593.25;;;15.53;64.77
5691;BME280;2870;42.680;23.364;2024-02-26T10:52:13;94600.13;;;15.29;64.71
5691;BME280;2870;42.680;23.364;2024-02-26T10:54:44;94594.25;;;15.58;65.10
5691;BME280;2870;42.680;23.364;2024-02-26T10:57:15;94601.34;;;15.47;64.96
5691;BME280;2870;42.680;23.364;2024-02-26T10:59:44;94599.09;;;15.24;65.53
5691;BME280;2870;42.680;23.364;2024-02-26T11:02:13;94597.44;;;15.09;65.64
5691;BME280;2870;42.680;23.364;2024-02-26T11:04:40;94590.84;;;15.17;65.90
5691;BME280;2870;42.680;23.364;2024-02-26T11:07:08;94588.13;;;15.19;65.80
5691;BME280;2870;42.680;23.364;2024-02-26T11:09:35;94585.66;;;15.56;63.75
5691;BME280;2870;42.680;23.364;2024-02-26T11:12:08;94593.16;;;14.99;64.68
5691;BME280;2870;42.680;23.364;2024-02-26T11:14:38;94578.59;;;15.24;64.32
5691;BME280;2870;42.680;23.364;2024-02-26T11:17:07;94590.50;;;15.44;63.48
5691;BME280;2870;42.680;23.364;2024-02-26T11:19:35;94583.53;;;15.66;63.80
5691;BME280;2870;42.680;23.364;2024-02-26T11:22:02;94581.75;;;15.61;63.68
5691;BME280;2870;42.680;23.364;2024-02-26T11:24:30;94586.53;;;15.80;63.14
5691;BME280;2870;42.680;23.364;2024-02-26T11:27:01;94579.41;;;15.79;61.92
5691;BME280;2870;42.680;23.364;2024-02-26T11:29:34;94594.25;;;15.58;62.52
5691;BME280;2870;42.680;23.364;2024-02-26T11:32:05;94580.81;;;15.47;62.88
5691;BME280;2870;42.680;23.364;2024-02-26T11:34:32;94579.66;;;15.61;62.94
5691;BME280;2870;42.680;23.364;2024-02-26T11:37:09;94578.13;;;15.27;63.35
5691;BME280;2870;42.680;23.364;2024-02-26T11:39:35;94576.38;;;15.65;63.22
5691;BME280;2870;42.680;23.364;2024-02-26T11:42:05;94579.97;;;15.66;62.61
5691;BME280;2870;42.680;23.364;2024-02-26T11:44:34;94574.97;;;15.33;63.51
5691;BME280;2870;42.680;23.364;2024-02-26T11:47:10;94569.25;;;15.64;62.24
5691;BME280;2870;42.680;23.364;2024-02-26T11:49:36;94574.22;;;15.75;61.50
5691;BME280;2870;42.680;23.364;2024-02-26T11:52:05;94577.25;;;15.46;62.92
5691;BME280;2870;42.680;23.364;2024-02-26T11:54:53;94566.00;;;15.79;61.52
5691;BME280;2870;42.680;23.364;2024-02-26T11:57:27;94568.97;;;15.38;62.25
5691;BME280;2870;42.680;23.364;2024-02-26T11:59:56;94571.94;;;15.83;61.68
5691;BME280;2870;42.680;23.364;2024-02-26T12:02:47;94563.16;;;15.58;61.64
5691;BME280;2870;42.680;23.364;2024-02-26T12:05:15;94570.03;;;15.76;61.31
5691;BME280;2870;42.680;23.364;2024-02-26T12:07:44;94562.50;;;15.69;61.63
5691;BME280;2870;42.680;23.364;2024-02-26T12:10:30;94569.59;;;15.92;60.51
5691;BME280;2870;42.680;23.364;2024-02-26T12:13:00;94562.38;;;15.67;60.15
5691;BME280;2870;42.680;23.364;2024-02-26T12:15:32;94562.78;;;15.52;61.38
5691;BME280;2870;42.680;23.364;2024-02-26T12:18:01;94562.66;;;15.50;61.23
5691;BME280;2870;42.680;23.364;2024-02-26T12:20:28;94560.91;;;15.45;61.38
5691;BME280;2870;42.680;23.364;2024-02-26T12:22:56;94554.44;;;15.32;59.48
5691;BME280;2870;42.680;23.364;2024-02-26T12:25:24;94563.78;;;15.78;58.06
5691;BME280;2870;42.680;23.364;2024-02-26T12:27:52;94565.53;;;15.61;58.98
5691;BME280;2870;42.680;23.364;2024-02-26T12:30:18;94562.03;;;16.06;58.65
5691;BME280;2870;42.680;23.364;2024-02-26T12:32:47;94570.94;;;16.24;57.35
5691;BME280;2870;42.680;23.364;2024-02-26T12:35:15;94569.56;;;16.13;56.88
5691;BME280;2870;42.680;23.364;2024-02-26T12:37:43;94567.47;;;16.13;56.41
5691;BME280;2870;42.680;23.364;2024-02-26T12:40:10;94562.66;;;16.16;56.63
5691;BME280;2870;42.680;23.364;2024-02-26T12:42:38;94578.59;;;16.44;55.99
5691;BME280;2870;42.680;23.364;2024-02-26T12:45:07;94566.66;;;16.34;53.91
5691;BME280;2870;42.680;23.364;2024-02-26T12:47:38;94567.56;;;16.72;52.80
5691;BME280;2870;42.680;23.364;2024-02-26T12:50:07;94561.91;;;16.72;53.11
5691;BME280;2870;42.680;23.364;2024-02-26T12:52:35;94561.13;;;16.60;51.12
5691;BME280;2870;42.680;23.364;2024-02-26T12:55:03;94565.56;;;16.39;51.61
5691;BME280;2870;42.680;23.364;2024-02-26T12:57:31;94565.03;;;16.31;51.91
5691;BME280;2870;42.680;23.364;2024-02-26T12:59:59;94563.56;;;16.30;52.75
5691;BME280;2870;42.680;23.364;2024-02-26T13:02:28;94559.91;;;16.51;53.00
5691;BME280;2870;42.680;23.364;2024-02-26T13:04:57;94568.03;;;16.45;53.69
5691;BME280;2870;42.680;23.364;2024-02-26T13:07:28;94495.94;;;15.78;54.70
5691;BME280;2870;42.680;23.364;2024-02-26T13:09:54;94554.41;;;16.08;53.84
5691;BME280;2870;42.680;23.364;2024-02-26T13:12:21;94557.91;;;16.42;53.27
5691;BME280;2870;42.680;23.364;2024-02-26T13:14:58;94552.69;;;16.15;53.58